Time;durP1;ratioP1;P1;durP2;ratioP2;P2;SDS_P1;SDS_P2;PMS_P1;PMS_P2;Temp;Humidity;BMP_temperature;BMP_pressure;BME280_temperature;BME280_humidity;BME280_pressure;Samples;Min_cycle;Max_cycle;Signal;HPM_P1;HPM_P2
2024/04/24 00:01:33;;;;;;;;;;;7.60;99.90;;;8.05;66.31;100045.25;5532828;25;19934;-84
2024/04/24 00:04:02;;;;;;;;;;;7.60;99.90;;;8.04;66.24;100048.94;5523033;26;19928;-85
2024/04/24 00:06:31;;;;;;;;;;;7.50;99.90;;;8.02;66.51;100041.19;5495729;26;20257;-84
2024/04/24 00:09:00;;;;;;;;;;;7.60;99.90;;;8.03;66.49;100039.34;5495244;26;19928;-85
2024/04/24 00:11:31;;;;;;;;;;;7.60;99.90;;;8.03;66.72;100036.69;5495167;26;20004;-85
2024/04/24 00:14:00;;;;;;;;;;;7.60;99.90;;;8.02;66.58;100033.22;5494895;26;20403;-85
2024/04/24 00:16:29;;;;;;;;;;;7.60;99.90;;;8.03;66.50;100026.06;5495369;26;19938;-85
2024/04/24 00:18:57;;;;;;;;;;;7.60;99.90;;;8.00;66.68;100036.09;5495091;26;19928;-85
2024/04/24 00:21:26;;;;;;;;;;;7.60;99.90;;;7.98;66.57;100032.00;5494946;26;20387;-84
2024/04/24 00:23:55;;;;;;;;;;;7.50;99.90;;;7.96;66.48;100018.13;5505227;26;19927;-84
2024/04/24 00:26:24;;;;;;;;;;;7.40;99.90;;;7.93;66.56;100018.50;5510787;25;20380;-85
2024/04/24 00:28:56;;;;;;;;;;;7.30;99.90;;;7.93;66.76;100018.50;5505191;26;19927;-85
2024/04/24 00:31:25;;;;;;;;;;;7.40;99.90;;;7.92;66.68;100016.88;5530771;25;20387;-84
2024/04/24 00:33:53;;;;;;;;;;;7.40;99.90;;;7.88;66.32;100013.81;5530490;25;19928;-84
2024/04/24 00:36:22;;;;;;;;;;;7.40;99.90;;;7.90;66.40;100017.06;5530868;25;19927;-85
2024/04/24 00:38:51;;;;;;;;;;;7.50;99.90;;;7.89;66.23;100009.31;5531721;26;19928;-85
2024/04/24 00:41:20;;;;;;;;;;;7.40;99.90;;;7.87;66.12;99998.09;5531980;26;19935;-85
2024/04/24 00:43:49;;;;;;;;;;;7.50;99.90;;;7.86;66.33;99991.16;5514514;26;19928;-85
2024/04/24 00:46:23;;;;;;;;;;;7.40;99.90;;;7.85;66.15;99997.47;5494956;26;20026;-85
2024/04/24 00:48:53;;;;;;;;;;;7.40;99.90;;;7.80;66.03;99991.97;5494978;26;19928;-84
2024/04/24 00:51:22;;;;;;;;;;;7.30;99.90;;;7.77;66.23;99990.53;5494741;26;19960;-85
2024/04/24 00:53:51;;;;;;;;;;;7.30;99.90;;;7.75;66.36;99988.06;5495211;26;19928;-85
2024/04/24 00:56:20;;;;;;;;;;;7.20;99.90;;;7.74;66.30;99985.63;5495023;26;20383;-84
2024/04/24 00:58:50;;;;;;;;;;;7.30;99.90;;;7.71;66.64;99983.38;5495317;26;19928;-85
2024/04/24 01:01:22;;;;;;;;;;;7.20;99.90;;;7.70;66.44;99984.41;5496950;26;19960;-85
2024/04/24 01:03:51;;;;;;;;;;;7.20;99.90;;;7.73;66.78;99984.00;5495002;26;19943;-85
2024/04/24 01:06:20;;;;;;;;;;;7.30;99.90;;;7.73;67.14;99979.50;5494765;26;19927;-84
2024/04/24 01:08:48;;;;;;;;;;;7.20;99.90;;;7.74;66.96;99983.78;5494440;26;19928;-85
2024/04/24 01:11:17;;;;;;;;;;;7.30;99.90;;;7.74;67.19;99975.03;5495216;26;19932;-85
2024/04/24 01:13:46;;;;;;;;;;;7.30;99.90;;;7.72;67.03;99977.88;5504103;26;19956;-85
2024/04/24 01:16:18;;;;;;;;;;;7.30;99.90;;;7.72;67.12;99975.22;5531946;25;20371;-85
2024/04/24 01:18:52;;;;;;;;;;;7.30;99.90;;;7.73;67.00;99965.44;5529553;26;19939;-85
2024/04/24 01:21:22;;;;;;;;;;;7.30;99.90;;;7.74;67.20;99965.22;5500190;26;19928;-85
2024/04/24 01:23:58;;;;;;;;;;;7.30;99.90;;;7.73;67.25;99968.91;5492965;26;19928;-84
2024/04/24 01:26:30;;;;;;;;;;;7.30;99.90;;;7.75;67.18;99966.84;5500527;26;19928;-85
2024/04/24 01:29:01;;;;;;;;;;;7.30;99.90;;;7.74;67.25;99957.25;5494524;26;19996;-85
2024/04/24 01:31:30;;;;;;;;;;;7.30;99.90;;;7.74;67.54;99949.28;5493543;26;19927;-85
2024/04/24 01:33:59;;;;;;;;;;;7.30;99.90;;;7.75;67.40;99936.81;5493959;26;19928;-85
2024/04/24 01:36:28;;;;;;;;;;;7.30;99.90;;;7.79;67.84;99934.59;5494444;26;20017;-85
2024/04/24 01:38:57;;;;;;;;;;;7.30;99.90;;;7.75;67.54;99932.34;5494031;26;19936;-85
2024/04/24 01:41:25;;;;;;;;;;;7.30;99.90;;;7.72;68.07;99924.81;5528855;26;19932;-85
2024/04/24 01:43:54;;;;;;;;;;;7.30;99.90;;;7.68;67.55;99926.22;5529672;25;19931;-85
2024/04/24 01:46:26;;;;;;;;;;;7.30;99.90;;;7.66;68.13;99915.03;5528900;26;19927;-85
2024/04/24 01:48:55;;;;;;;;;;;7.20;99.90;;;7.69;68.07;99914.59;5530571;26;19927;-85
2024/04/24 01:51:24;;;;;;;;;;;7.20;99.90;;;7.70;68.13;99910.09;5531105;25;19927;-84
2024/04/24 01:53:55;;;;;;;;;;;7.20;99.90;;;7.65;68.38;99913.38;5530168;25;20387;-85
2024/04/24 01:56:24;;;;;;;;;;;7.30;99.90;;;7.66;68.63;99909.72;5529125;26;20270;-84
2024/04/24 01:58:50;;;;;;;;;;;7.30;99.90;;;7.65;68.48;99909.91;5529112;26;19927;-85
2024/04/24 02:01:19;;;;;;;;;;;7.20;99.90;;;7.66;68.82;99904.41;5494293;26;19996;-84
2024/04/24 02:03:50;;;;;;;;;;;7.20;99.90;;;7.68;68.72;99906.84;5525614;26;19928;-85
2024/04/24 02:06:19;;;;;;;;;;;7.20;99.90;;;7.64;68.66;99908.28;5528776;25;19928;-84
2024/04/24 02:08:48;;;;;;;;;;;7.20;99.90;;;7.63;68.91;99901.34;5529797;25;19935;-85
2024/04/24 02:11:18;;;;;;;;;;;7.20;99.90;;;7.61;68.81;99903.34;5527673;26;19927;-85
2024/04/24 02:13:47;;;;;;;;;;;7.20;99.90;;;7.63;68.50;99904.81;5530703;26;19938;-84
2024/04/24 02:16:16;;;;;;;;;;;7.20;99.90;;;7.64;68.38;99910.91;5528894;26;19934;-84
2024/04/24 02:18:45;;;;;;;;;;;7.20;99.90;;;7.64;68.55;99901.13;5527395;26;19935;-85
2024/04/24 02:21:16;;;;;;;;;;;7.20;99.90;;;7.64;68.95;99903.78;5493535;26;19928;-84
2024/04/24 02:23:45;;;;;;;;;;;7.20;99.90;;;7.58;69.00;99901.13;5494216;26;19936;-85
2024/04/24 02:26:11;;;;;;;;;;;7.10;99.90;;;7.60;69.19;99899.91;5493745;26;19928;-85
2024/04/24 02:28:40;;;;;;;;;;;7.10;99.90;;;7.58;69.31;99891.34;5496263;26;20437;-85
2024/04/24 02:31:09;;;;;;;;;;;7.30;99.90;;;7.60;69.13;99883.16;5493473;26;19928;-85
2024/04/24 02:33:39;;;;;;;;;;;7.10;99.90;;;7.60;68.88;99880.50;5493952;26;19932;-85
2024/04/24 02:36:08;;;;;;;;;;;7.10;99.90;;;7.58;69.17;99878.06;5493509;26;19958;-85
2024/04/24 02:38:40;;;;;;;;;;;7.20;99.90;;;7.58;69.28;99887.88;5498437;26;19935;-85
2024/04/24 02:41:09;;;;;;;;;;;7.10;99.90;;;7.54;69.64;99878.69;5530256;26;20375;-85
2024/04/24 02:43:37;;;;;;;;;;;7.10;99.90;;;7.52;69.21;99878.91;5530265;25;20378;-84
2024/04/24 02:46:06;;;;;;;;;;;7.10;99.90;;;7.51;69.76;99868.47;5530521;25;19996;-85
2024/04/24 02:48:35;;;;;;;;;;;7.10;99.90;;;7.52;69.22;99870.94;5528658;26;19927;-85
2024/04/24 02:51:04;;;;;;;;;;;7.10;99.90;;;7.52;69.53;99870.94;5530253;25;19934;-85
2024/04/24 02:53:32;;;;;;;;;;;7.10;99.90;;;7.54;69.12;99868.06;5517985;25;19928;-85
2024/04/24 02:56:04;;;;;;;;;;;7.10;99.90;;;7.56;69.42;99863.34;5494170;26;20029;-85
2024/04/24 02:58:33;;;;;;;;;;;7.10;99.90;;;7.51;69.65;99861.31;5493729;26;19938;-85
2024/04/24 03:01:02;;;;;;;;;;;7.10;99.90;;;7.52;69.13;99859.50;5493162;26;19940;-85
2024/04/24 03:03:30;;;;;;;;;;;7.10;99.90;;;7.45;69.38;99859.50;5492316;26;19928;-85
2024/04/24 03:05:59;;;;;;;;;;;7.00;99.90;;;7.44;69.22;99856.03;5492661;26;19928;-85
2024/04/24 03:08:28;;;;;;;;;;;7.00;99.90;;;7.46;69.43;99858.47;5490803;26;19928;-84
2024/04/24 03:10:57;;;;;;;;;;;7.00;99.90;;;7.52;69.09;99851.56;5508632;26;19989;-84
2024/04/24 03:13:28;;;;;;;;;;;7.10;99.90;;;7.53;69.02;99846.03;5529426;26;19943;-85
2024/04/24 03:15:57;;;;;;;;;;;7.10;99.90;;;7.52;69.19;99844.41;5522612;26;20390;-85
2024/04/24 03:18:26;;;;;;;;;;;7.10;99.90;;;7.52;68.81;99841.75;5496956;26;19928;-85
2024/04/24 03:20:54;;;;;;;;;;;7.10;99.90;;;7.50;68.66;99838.47;5495823;26;19931;-85
2024/04/24 03:23:23;;;;;;;;;;;7.10;99.90;;;7.50;68.57;99827.84;5494506;26;19928;-85
2024/04/24 03:25:52;;;;;;;;;;;7.10;99.90;;;7.50;68.65;99833.16;5495716;26;19936;-85
2024/04/24 03:28:21;;;;;;;;;;;7.10;99.90;;;7.48;68.94;99824.59;5497093;26;19930;-85
2024/04/24 03:30:52;;;;;;;;;;;7.00;99.90;;;7.47;68.75;99825.63;5495809;26;19936;-84
2024/04/24 03:33:21;;;;;;;;;;;7.00;99.90;;;7.47;68.83;99822.97;5495235;26;19968;-84
2024/04/24 03:35:50;;;;;;;;;;;7.00;99.90;;;7.45;68.86;99817.88;5496427;26;19928;-85
2024/04/24 03:38:19;;;;;;;;;;;7.00;99.90;;;7.48;69.00;99821.97;5494663;26;20390;-85
2024/04/24 03:40:47;;;;;;;;;;;7.00;99.90;;;7.47;68.70;99815.03;5494715;26;19935;-84
2024/04/24 03:43:16;;;;;;;;;;;7.00;99.90;;;7.44;68.37;99805.63;5493688;26;19940;-84
2024/04/24 03:45:45;;;;;;;;;;;7.00;99.90;;;7.38;68.81;99813.63;5527619;26;19927;-84
2024/04/24 03:48:14;;;;;;;;;;;7.00;99.90;;;7.37;68.81;99810.16;5532428;25;19934;-85
2024/04/24 03:50:43;;;;;;;;;;;7.00;99.90;;;7.40;68.57;99807.06;5532790;25;20278;-84
2024/04/24 03:53:12;;;;;;;;;;;6.90;99.90;;;7.36;68.26;99810.34;5534107;25;19927;-83
2024/04/24 03:55:40;;;;;;;;;;;6.90;99.90;;;7.36;68.21;99811.13;5533854;25;19934;-82
2024/04/24 03:58:09;;;;;;;;;;;6.90;99.90;;;7.37;68.50;99814.59;5533533;25;19927;-83
2024/04/24 04:00:38;;;;;;;;;;;6.90;99.90;;;7.37;69.09;99809.31;5532969;25;19931;-83
2024/04/24 04:03:09;;;;;;;;;;;7.10;99.90;;;7.36;68.84;99800.53;5497442;26;19934;-84
2024/04/24 04:05:41;;;;;;;;;;;6.90;99.90;;;7.36;68.94;99803.19;5498119;26;19935;-85
2024/04/24 04:08:10;;;;;;;;;;;6.90;99.90;;;7.37;69.00;99798.69;5499573;26;19928;-85
2024/04/24 04:10:38;;;;;;;;;;;7.00;99.90;;;7.37;69.49;99793.38;5512989;26;19947;-85
2024/04/24 04:13:07;;;;;;;;;;;6.90;99.90;;;7.38;69.11;99795.03;5535906;26;19934;-85
2024/04/24 04:15:36;;;;;;;;;;;6.90;99.90;;;7.35;69.13;99790.13;5523547;25;19935;-85
2024/04/24 04:18:05;;;;;;;;;;;6.90;99.90;;;7.36;69.11;99797.06;5498583;26;19928;-85
2024/04/24 04:20:34;;;;;;;;;;;6.90;99.90;;;7.34;69.07;99784.03;5498296;26;19927;-85
2024/04/24 04:23:06;;;;;;;;;;;6.90;99.90;;;7.33;69.11;99787.69;5497984;26;19928;-83
2024/04/24 04:25:35;;;;;;;;;;;6.90;99.90;;;7.31;69.22;99789.72;5494478;26;19928;-82
2024/04/24 04:28:04;;;;;;;;;;;6.80;99.90;;;7.29;69.42;99788.31;5520067;26;19938;-83
2024/04/24 04:30:33;;;;;;;;;;;6.80;99.90;;;7.28;69.17;99789.34;5534546;25;19934;-85
2024/04/24 04:33:02;;;;;;;;;;;6.80;99.90;;;7.27;69.23;99783.22;5534787;25;19928;-85
2024/04/24 04:35:30;;;;;;;;;;;6.80;99.90;;;7.29;69.33;99781.19;5519389;25;20268;-86
2024/04/24 04:38:00;;;;;;;;;;;6.90;99.90;;;7.28;69.01;99787.50;5496950;26;19928;-85
2024/04/24 04:40:31;;;;;;;;;;;6.80;99.90;;;7.18;69.37;99789.78;5496313;26;20014;-86
2024/04/24 04:43:00;;;;;;;;;;;6.80;99.90;;;7.15;69.31;99780.38;5496084;26;19938;-86
2024/04/24 04:45:29;;;;;;;;;;;6.70;99.90;;;7.16;69.63;99782.00;5494743;26;19954;-85
2024/04/24 04:47:58;;;;;;;;;;;6.70;99.90;;;7.19;69.24;99776.28;5494385;26;19927;-85
2024/04/24 04:50:27;;;;;;;;;;;6.80;99.90;;;7.14;69.56;99780.59;5495989;26;19935;-86
2024/04/24 04:52:57;;;;;;;;;;;6.80;99.90;;;7.19;69.31;99786.09;5497740;26;19927;-86
2024/04/24 04:55:26;;;;;;;;;;;6.80;99.90;;;7.19;69.20;99778.13;5494516;26;20018;-86
2024/04/24 04:58:01;;;;;;;;;;;6.80;99.90;;;7.23;69.48;99776.69;5495483;26;19934;-85
2024/04/24 05:00:30;;;;;;;;;;;6.80;99.90;;;7.21;69.37;99779.53;5514402;25;19927;-86
2024/04/24 05:02:58;;;;;;;;;;;6.80;99.90;;;7.26;69.67;99780.75;5492696;26;19928;-86
2024/04/24 05:05:27;;;;;;;;;;;6.90;99.90;;;7.30;69.54;99776.69;5492283;26;19939;-86
2024/04/24 05:07:56;;;;;;;;;;;6.90;99.90;;;7.33;69.82;99776.28;5492497;26;19944;-85
2024/04/24 05:10:25;;;;;;;;;;;7.00;99.90;;;7.35;69.41;99779.53;5494033;26;20275;-86
2024/04/24 05:12:57;;;;;;;;;;;7.00;99.90;;;7.36;69.46;99775.84;5494405;26;20387;-86
2024/04/24 05:15:25;;;;;;;;;;;7.00;99.90;;;7.39;69.52;99768.28;5495260;26;19928;-86
2024/04/24 05:17:54;;;;;;;;;;;7.00;99.90;;;7.36;69.04;99770.53;5494985;26;20417;-86
2024/04/24 05:20:23;;;;;;;;;;;7.00;99.90;;;7.39;69.13;99773.59;5494414;26;19928;-86
2024/04/24 05:23:00;;;;;;;;;;;7.10;99.90;;;7.41;69.10;99765.44;5494172;26;19928;-86
2024/04/24 05:25:32;;;;;;;;;;;7.10;99.90;;;7.37;68.77;99764.22;5493843;26;19934;-86
2024/04/24 05:30:48;;;;;;;;;;;7.10;99.90;;;7.56;68.84;99754.56;5496533;26;19939;-86
2024/04/24 05:33:17;;;;;;;;;;;7.20;99.90;;;7.66;69.40;99750.47;5529082;26;20390;-86
2024/04/24 05:35:48;;;;;;;;;;;7.40;99.90;;;7.70;69.04;99743.69;5529200;26;19927;-86
2024/04/24 05:38:17;;;;;;;;;;;7.50;99.90;;;7.72;68.52;99749.63;5531423;26;20027;-86
2024/04/24 05:40:46;;;;;;;;;;;7.50;99.90;;;7.71;68.81;99744.50;5531933;25;19927;-86
2024/04/24 05:43:17;;;;;;;;;;;7.50;99.90;;;7.72;68.52;99741.66;5522428;25;19928;-86
2024/04/24 05:45:46;;;;;;;;;;;7.50;99.90;;;7.68;68.57;99743.09;5515197;26;19927;-85
2024/04/24 05:48:15;;;;;;;;;;;7.40;99.90;;;7.71;68.86;99736.56;5532106;26;19928;-83
2024/04/24 05:50:44;;;;;;;;;;;7.50;99.90;;;7.72;68.25;99736.34;5534225;25;19927;-86
2024/04/24 05:53:13;;;;;;;;;;;7.40;99.90;;;7.65;67.61;99732.91;5531670;25;20274;-85
2024/04/24 05:55:42;;;;;;;;;;;7.40;99.90;;;7.50;68.02;99729.69;5495724;26;19932;-85
2024/04/24 05:58:10;;;;;;;;;;;7.30;99.90;;;7.67;68.26;99724.75;5515353;26;19928;-83
2024/04/24 06:00:42;;;;;;;;;;;7.40;99.90;;;7.75;68.18;99729.81;5535033;26;20296;-83
2024/04/24 06:03:11;;;;;;;;;;;7.50;99.90;;;7.73;68.39;99726.56;5532463;25;20013;-86
2024/04/24 06:05:39;;;;;;;;;;;7.50;99.90;;;7.66;68.15;99728.41;5528547;26;20016;-86
2024/04/24 06:08:08;;;;;;;;;;;7.40;99.90;;;7.64;67.93;99730.47;5513421;25;19935;-85
2024/04/24 06:10:37;;;;;;;;;;;7.40;99.90;;;7.51;66.68;99725.19;5496563;26;19936;-84
2024/04/24 06:13:06;;;;;;;;;;;7.30;99.90;;;7.53;67.86;99728.47;5497104;26;19981;-84
2024/04/24 06:15:35;;;;;;;;;;;7.30;99.90;;;7.71;68.26;99724.13;5496785;26;19928;-84
2024/04/24 06:18:07;;;;;;;;;;;7.40;99.90;;;7.62;67.46;99720.06;5511708;26;19927;-83
2024/04/24 06:20:35;;;;;;;;;;;7.40;99.90;;;7.73;67.54;99724.72;5532169;25;20271;-83
2024/04/24 06:23:04;;;;;;;;;;;7.50;99.90;;;7.68;68.05;99723.72;5530745;26;19931;-84
2024/04/24 06:25:33;;;;;;;;;;;7.50;99.90;;;7.42;67.19;99716.69;5530613;26;19928;-86
2024/04/24 06:28:02;;;;;;;;;;;7.40;99.90;;;7.51;67.40;99715.41;5518183;25;19932;-86
2024/04/24 06:30:31;;;;;;;;;;;7.40;99.90;;;7.57;67.46;99722.53;5516446;25;19936;-86
2024/04/24 06:32:59;;;;;;;;;;;7.40;99.90;;;7.59;65.88;99719.66;5499730;26;19976;-86
2024/04/24 06:35:31;;;;;;;;;;;7.40;99.90;;;7.49;65.84;99720.13;5499624;26;20027;-86
2024/04/24 06:37:57;;;;;;;;;;;7.30;99.90;;;7.52;66.11;99710.94;5493156;26;19964;-86
2024/04/24 06:40:29;;;;;;;;;;;7.30;99.90;;;7.53;65.98;99713.38;5492829;26;19928;-84
2024/04/24 06:42:58;;;;;;;;;;;7.30;99.90;;;7.44;65.64;99720.75;5493797;26;19927;-86
2024/04/24 06:45:26;;;;;;;;;;;7.20;99.90;;;7.37;66.12;99719.13;5492641;26;19928;-86
2024/04/24 06:47:55;;;;;;;;;;;7.10;99.90;;;7.41;66.27;99717.69;5521309;25;20021;-87
2024/04/24 06:50:24;;;;;;;;;;;7.10;99.90;;;7.47;66.24;99714.22;5514251;26;20033;-86
2024/04/24 06:52:56;;;;;;;;;;;7.20;99.90;;;7.50;66.35;99713.78;5498043;26;19928;-86
2024/04/24 06:55:25;;;;;;;;;;;7.20;99.90;;;7.53;66.46;99712.56;5497910;26;20268;-86
2024/04/24 06:57:54;;;;;;;;;;;7.20;99.90;;;7.48;66.15;99713.19;5499194;26;19928;-85
2024/04/24 07:00:24;;;;;;;;;;;7.10;99.90;;;7.46;66.22;99712.56;5496043;26;20382;-84
2024/04/24 07:02:53;;;;;;;;;;;7.20;99.90;;;7.54;66.07;99709.69;5506318;26;19932;-84
2024/04/24 07:05:21;;;;;;;;;;;7.20;99.90;;;7.64;66.58;99707.41;5501832;26;19928;-84
2024/04/24 07:07:50;;;;;;;;;;;7.40;99.90;;;7.59;66.79;99701.91;5527079;25;19935;-84
2024/04/24 07:10:22;;;;;;;;;;;7.40;99.90;;;7.65;66.57;99690.44;5495764;26;19954;-83
2024/04/24 07:12:50;;;;;;;;;;;7.50;99.90;;;7.72;66.50;99701.84;5497041;26;19934;-83
2024/04/24 07:15:19;;;;;;;;;;;7.50;99.90;;;7.67;65.57;99692.91;5496524;26;19928;-84
2024/04/24 07:17:49;;;;;;;;;;;7.50;99.90;;;7.71;66.49;99686.13;5498495;26;19928;-84
2024/04/24 07:20:18;;;;;;;;;;;7.50;99.90;;;7.74;66.44;99683.06;5532533;25;19927;-84
2024/04/24 07:22:47;;;;;;;;;;;7.60;99.90;;;7.64;65.54;99685.34;5525458;26;19927;-84
2024/04/24 07:25:16;;;;;;;;;;;7.50;99.90;;;7.68;65.00;99674.09;5532025;26;19927;-84
2024/04/24 07:27:47;;;;;;;;;;;7.50;99.90;;;7.70;64.52;99677.34;5502397;26;19977;-84
2024/04/24 07:30:16;;;;;;;;;;;7.50;99.90;;;7.83;64.76;99670.34;5495058;26;19928;-84
2024/04/24 07:32:45;;;;;;;;;;;7.60;99.90;;;7.80;65.43;99671.59;5495505;26;20368;-84
2024/04/24 07:35:13;;;;;;;;;;;7.60;99.90;;;7.74;65.80;99669.78;5494725;26;20022;-83
2024/04/24 07:37:43;;;;;;;;;;;7.60;99.90;;;7.72;65.60;99672.66;5521267;26;20386;-83
2024/04/24 07:40:12;;;;;;;;;;;7.60;99.90;;;7.88;65.49;99660.72;5508257;26;20378;-83
2024/04/24 07:42:42;;;;;;;;;;;7.70;99.90;;;7.97;65.22;99666.59;5529011;26;19928;-84
2024/04/24 07:45:13;;;;;;;;;;;7.80;99.90;;;8.05;65.01;99660.19;5531963;25;19999;-83
2024/04/24 07:47:42;;;;;;;;;;;7.90;99.90;;;8.09;65.10;99666.72;5515400;26;19928;-84
2024/04/24 07:50:11;;;;;;;;;;;7.90;99.90;;;8.08;64.98;99662.44;5494762;26;19935;-84
2024/04/24 07:52:40;;;;;;;;;;;7.90;99.90;;;8.02;64.15;99661.47;5494799;26;19940;-84
2024/04/24 07:55:09;;;;;;;;;;;7.80;99.90;;;7.96;64.03;99665.78;5496880;26;19948;-83
2024/04/24 07:57:37;;;;;;;;;;;7.80;99.90;;;7.88;64.37;99666.03;5520690;26;19934;-83
2024/04/24 08:00:07;;;;;;;;;;;7.80;99.90;;;7.88;64.13;99667.88;5529154;25;19933;-84
2024/04/24 08:02:45;;;;;;;;;;;7.80;99.90;;;7.91;63.67;99670.13;5498953;26;19928;-84
2024/04/24 08:05:14;;;;;;;;;;;7.70;99.90;;;7.91;64.06;99665.63;5495188;26;19935;-84
2024/04/24 08:07:42;;;;;;;;;;;7.70;99.90;;;7.89;63.53;99664.19;5512254;26;19938;-84
2024/04/24 08:10:11;;;;;;;;;;;7.70;99.90;;;7.85;63.48;99666.44;5506032;26;19944;-84
2024/04/24 08:12:41;;;;;;;;;;;7.60;99.90;;;7.80;64.24;99670.78;5495066;26;20379;-83
2024/04/24 08:15:11;;;;;;;;;;;7.60;99.90;;;7.73;63.77;99671.63;5496476;26;19928;-84
2024/04/24 08:17:40;;;;;;;;;;;7.50;99.90;;;7.70;63.81;99666.72;5498932;26;19928;-84
2024/04/24 08:20:12;;;;;;;;;;;7.50;99.90;;;7.70;64.40;99668.56;5497378;26;19932;-84
2024/04/24 08:22:41;;;;;;;;;;;7.50;99.90;;;7.78;65.05;99665.69;5532198;25;19979;-84
2024/04/24 08:25:10;;;;;;;;;;;7.60;99.90;;;7.76;64.01;99662.44;5531801;26;19973;-84
2024/04/24 08:27:39;;;;;;;;;;;7.60;99.90;;;7.82;64.36;99664.25;5497010;25;19928;-84
2024/04/24 08:30:09;;;;;;;;;;;7.60;99.90;;;7.82;63.95;99658.13;5495773;26;19928;-81
2024/04/24 08:32:38;;;;;;;;;;;7.60;99.90;;;7.81;64.52;99657.31;5527297;26;19963;-83
2024/04/24 08:35:07;;;;;;;;;;;7.60;99.90;;;7.84;64.60;99656.06;5531629;25;20386;-84
2024/04/24 08:37:38;;;;;;;;;;;7.60;99.90;;;7.81;64.88;99651.16;5524400;26;19927;-84
2024/04/24 08:40:08;;;;;;;;;;;7.60;99.90;;;7.75;64.89;99656.28;5497696;26;20385;-84
2024/04/24 08:42:37;;;;;;;;;;;7.60;99.90;;;7.81;65.61;99661.78;5529918;26;19927;-84
2024/04/24 08:45:06;;;;;;;;;;;7.60;99.90;;;7.87;65.94;99655.63;5528665;26;20287;-84
2024/04/24 08:47:35;;;;;;;;;;;7.60;99.90;;;7.92;65.76;99645.19;5500903;25;20011;-84
2024/04/24 08:50:04;;;;;;;;;;;7.70;99.90;;;7.93;65.66;99654.78;5510542;26;19940;-83
2024/04/24 08:52:33;;;;;;;;;;;7.70;99.90;;;7.86;65.16;99657.47;5503885;26;20006;-84
2024/04/24 08:55:05;;;;;;;;;;;7.60;99.90;;;7.69;65.44;99667.75;5494269;26;19934;-84
2024/04/24 08:57:36;;;;;;;;;;;7.50;99.90;;;7.62;66.45;99677.63;5495137;26;19927;-84
2024/04/24 09:00:05;;;;;;;;;;;7.40;99.90;;;7.65;66.86;99658.59;5515620;26;20410;-83
2024/04/24 09:02:39;;;;;;;;;;;7.40;99.90;;;7.68;66.89;99663.50;5501182;26;19963;-83
2024/04/24 09:05:09;;;;;;;;;;;7.40;99.90;;;7.72;67.31;99663.88;5531026;26;19927;-83
2024/04/24 09:07:40;;;;;;;;;;;7.40;99.90;;;7.78;67.82;99655.06;5530066;25;19939;-85
2024/04/24 09:10:13;;;;;;;;;;;7.50;99.90;;;7.90;68.26;99649.88;5493317;26;19928;-85
2024/04/24 09:12:42;;;;;;;;;;;7.60;99.90;;;8.01;68.54;99638.59;5492856;26;19928;-85
2024/04/24 09:15:10;;;;;;;;;;;7.80;99.90;;;8.08;70.13;99641.19;5493995;26;20323;-86
2024/04/24 09:17:39;;;;;;;;;;;7.90;99.90;;;8.08;69.17;99654.47;5492174;26;19947;-86
2024/04/24 09:20:09;;;;;;;;;;;7.90;99.90;;;7.99;69.25;99649.41;5492780;26;19944;-86
2024/04/24 09:22:38;;;;;;;;;;;7.80;99.90;;;7.98;69.37;99639.81;5492209;26;19934;-86
2024/04/24 09:25:07;;;;;;;;;;;7.80;99.90;;;7.98;69.40;99637.16;5492346;26;19934;-86
2024/04/24 09:27:40;;;;;;;;;;;7.80;99.90;;;7.98;69.40;99636.34;5508880;26;19934;-86
2024/04/24 09:30:10;;;;;;;;;;;7.80;99.90;;;8.00;69.52;99634.28;5502401;25;20266;-86
2024/04/24 09:32:39;;;;;;;;;;;7.80;99.90;;;8.00;69.84;99629.81;5491605;26;19935;-86
2024/04/24 09:35:09;;;;;;;;;;;7.80;99.90;;;8.01;69.68;99638.59;5489560;26;19935;-86
2024/04/24 09:37:37;;;;;;;;;;;7.80;99.90;;;7.83;70.06;99627.88;5489444;26;19932;-86
2024/04/24 09:40:10;;;;;;;;;;;7.70;99.90;;;7.92;70.32;99627.41;5494032;26;20275;-86
2024/04/24 09:42:41;;;;;;;;;;;7.80;99.90;;;8.08;70.33;99625.25;5507421;26;20002;-86
2024/04/24 09:45:11;;;;;;;;;;;8.00;99.90;;;8.12;70.89;99624.63;5528608;25;19934;-86
2024/04/24 09:47:43;;;;;;;;;;;8.00;99.90;;;8.20;71.31;99621.72;5527178;26;19936;-86
2024/04/24 09:50:12;;;;;;;;;;;8.10;99.90;;;8.07;71.38;99623.63;5499152;25;20371;-86
2024/04/24 09:52:45;;;;;;;;;;;8.10;99.90;;;7.93;72.30;99618.41;5520150;26;20375;-87
2024/04/24 09:55:14;;;;;;;;;;;8.00;99.90;;;8.08;73.21;99615.44;5524918;26;19934;-86
2024/04/24 09:57:47;;;;;;;;;;;8.10;99.90;;;8.15;72.59;99610.91;5523318;26;19927;-85
2024/04/24 10:00:17;;;;;;;;;;;8.20;99.90;;;8.36;73.48;99614.22;5527809;26;19932;-86
2024/04/24 10:02:47;;;;;;;;;;;8.40;99.90;;;8.46;73.50;99604.75;5527791;26;19928;-86
2024/04/24 10:05:19;;;;;;;;;;;8.50;99.90;;;8.58;73.87;99602.16;5528542;25;19927;-86
2024/04/24 10:07:52;;;;;;;;;;;8.60;99.90;;;8.68;74.04;99589.19;5528058;25;19991;-86
2024/04/24 10:10:21;;;;;;;;;;;8.80;99.90;;;8.72;74.05;99595.69;5528182;25;19943;-86
2024/04/24 10:12:53;;;;;;;;;;;8.90;99.90;;;8.79;74.00;99590.31;5524845;25;20021;-86
2024/04/24 10:15:25;;;;;;;;;;;8.90;99.90;;;8.67;72.08;99589.41;5528045;25;19927;-86
2024/04/24 10:17:55;;;;;;;;;;;8.90;99.90;;;8.51;70.30;99593.47;5527438;26;19927;-86
2024/04/24 10:20:24;;;;;;;;;;;8.70;99.90;;;8.38;69.97;99583.75;5525848;26;19935;-86
2024/04/24 10:22:54;;;;;;;;;;;8.50;99.90;;;8.34;70.32;99589.69;5527714;25;19959;-86
2024/04/24 10:25:24;;;;;;;;;;;8.50;99.90;;;8.36;71.25;99600.94;5525581;26;19931;-86
2024/04/24 10:27:58;;;;;;;;;;;8.50;99.90;;;8.13;67.93;99597.03;5524641;25;19927;-85
2024/04/24 10:30:27;;;;;;;;;;;8.30;99.90;;;8.07;67.81;99599.75;5527096;25;19931;-86
2024/04/24 10:32:56;;;;;;;;;;;8.10;99.90;;;7.94;68.56;99613.91;5527313;25;19928;-86
2024/04/24 10:35:27;;;;;;;;;;;7.90;99.90;;;7.87;68.87;99606.00;5527539;26;19989;-86
2024/04/24 10:37:57;;;;;;;;;;;7.80;99.90;;;7.83;69.07;99601.34;5527557;25;20405;-87
2024/04/24 10:40:29;;;;;;;;;;;7.60;99.90;;;7.74;70.33;99603.44;5527309;25;19928;-86
2024/04/24 10:43:00;;;;;;;;;;;7.50;99.90;;;7.86;70.20;99600.94;5527392;26;19938;-87
2024/04/24 10:45:30;;;;;;;;;;;7.60;99.90;;;7.95;70.86;99599.59;5510150;26;19940;-86
2024/04/24 10:47:59;;;;;;;;;;;7.70;99.90;;;7.93;72.60;99591.88;5490565;26;19931;-87
2024/04/24 10:50:31;;;;;;;;;;;7.80;99.90;;;7.96;73.55;99591.44;5490632;26;19935;-87
2024/04/24 10:52:59;;;;;;;;;;;7.80;99.90;;;7.96;75.44;99585.31;5490322;26;19944;-86
2024/04/24 10:55:26;;;;;;;;;;;7.90;99.90;;;8.14;75.98;99579.25;5490117;26;20387;-86
2024/04/24 10:57:56;;;;;;;;;;;8.10;99.90;;;8.29;77.63;99574.41;5489814;26;19928;-87
2024/04/24 11:00:31;;;;;;;;;;;8.30;99.90;;;8.36;77.48;99585.00;5505661;26;20013;-87
2024/04/24 11:03:00;;;;;;;;;;;8.40;99.90;;;8.42;77.77;99574.31;5527115;26;19955;-87
2024/04/24 11:05:34;;;;;;;;;;;8.50;99.90;;;8.57;79.10;99573.97;5524219;26;19935;-86
2024/04/24 11:08:03;;;;;;;;;;;8.60;99.90;;;8.67;79.01;99571.63;5526761;25;20378;-86
2024/04/24 11:10:33;;;;;;;;;;;8.80;99.90;;;8.65;76.80;99560.41;5526527;26;19937;-86
2024/04/24 11:13:02;;;;;;;;;;;8.80;99.90;;;8.59;75.20;99568.44;5526868;25;19928;-86
2024/04/24 11:15:36;;;;;;;;;;;8.80;99.90;;;8.61;76.22;99569.84;5526665;25;20375;-86
2024/04/24 11:18:05;;;;;;;;;;;8.70;99.90;;;8.62;75.66;99568.81;5526604;26;19955;-87
2024/04/24 11:20:37;;;;;;;;;;;8.70;99.90;;;8.69;75.10;99564.25;5523074;25;19967;-87
2024/04/24 11:23:10;;;;;;;;;;;8.80;99.90;;;8.71;73.67;99562.16;5523565;25;20021;-87
2024/04/24 11:25:39;;;;;;;;;;;8.90;99.90;;;8.74;73.24;99564.41;5489503;26;19928;-87
2024/04/24 11:28:08;;;;;;;;;;;8.90;99.90;;;8.66;72.92;99564.69;5490326;26;19935;-86
2024/04/24 11:30:40;;;;;;;;;;;8.80;99.90;;;8.85;74.09;99562.03;5493938;26;20017;-86
2024/04/24 11:33:08;;;;;;;;;;;8.90;99.90;;;8.94;72.61;99550.88;5524809;26;19927;-86
2024/04/24 11:35:37;;;;;;;;;;;9.10;99.90;;;9.14;72.51;99550.63;5489998;26;20021;-86
2024/04/24 11:38:06;;;;;;;;;;;9.30;99.90;;;9.15;71.14;99543.44;5494530;26;19935;-86
2024/04/24 11:40:35;;;;;;;;;;;9.30;99.90;;;9.01;70.28;99550.78;5493967;26;20004;-85
2024/04/24 11:43:08;;;;;;;;;;;9.20;99.90;;;9.00;69.78;99538.53;5491572;26;20371;-87
2024/04/24 11:45:40;;;;;;;;;;;9.20;99.90;;;9.14;69.78;99544.50;5503929;26;20379;-86
2024/04/24 11:48:09;;;;;;;;;;;9.30;99.90;;;9.17;68.27;99528.06;5530293;25;20385;-87